sensor_id;sensor_type;location;lat;lon;timestamp;P1;durP1;ratioP1;P2;durP2;ratioP2
68718;SDS011;55696;52.138;5.444;2022-08-19T00:01:24;9.18;;;6.70;;
68718;SDS011;55696;52.138;5.444;2022-08-19T00:03:56;8.55;;;5.95;;
68718;SDS011;55696;52.138;5.444;2022-08-19T00:06:24;11.07;;;6.73;;
68718;SDS011;55696;52.138;5.444;2022-08-19T00:08:51;9.38;;;7.38;;
68718;SDS011;55696;52.138;5.444;2022-08-19T00:11:18;10.57;;;7.28;;
68718;SDS011;55696;52.138;5.444;2022-08-19T00:13:51;9.32;;;6.68;;
68718;SDS011;55696;52.138;5.444;2022-08-19T00:16:18;9.93;;;6.50;;
68718;SDS011;55696;52.138;5.444;2022-08-19T00:18:51;11.15;;;7.10;;
68718;SDS011;55696;52.138;5.444;2022-08-19T00:21:19;9.48;;;7.07;;
68718;SDS011;55696;52.138;5.444;2022-08-19T00:23:46;10.93;;;6.97;;
68718;SDS011;55696;52.138;5.444;2022-08-19T00:26:13;10.48;;;7.45;;
68718;SDS011;55696;52.138;5.444;2022-08-19T00:28:40;9.88;;;6.65;;
68718;SDS011;55696;52.138;5.444;2022-08-19T00:31:07;10.07;;;7.45;;
68718;SDS011;55696;52.138;5.444;2022-08-19T00:33:36;12.07;;;7.15;;
68718;SDS011;55696;52.138;5.444;2022-08-19T00:36:04;8.05;;;6.43;;
68718;SDS011;55696;52.138;5.444;2022-08-19T00:38:34;10.32;;;6.97;;
68718;SDS011;55696;52.138;5.444;2022-08-19T00:41:04;10.18;;;7.10;;
68718;SDS011;55696;52.138;5.444;2022-08-19T00:43:32;8.70;;;6.22;;
68718;SDS011;55696;52.138;5.444;2022-08-19T00:45:59;9.13;;;6.55;;
68718;SDS011;55696;52.138;5.444;2022-08-19T00:48:27;9.13;;;6.68;;
68718;SDS011;55696;52.138;5.444;2022-08-19T00:50:54;10.02;;;5.93;;
68718;SDS011;55696;52.138;5.444;2022-08-19T00:53:23;8.52;;;6.55;;
68718;SDS011;55696;52.138;5.444;2022-08-19T00:55:53;10.68;;;6.65;;
68718;SDS011;55696;52.138;5.444;2022-08-19T00:58:24;13.63;;;6.10;;
68718;SDS011;55696;52.138;5.444;2022-08-19T01:00:53;9.73;;;5.47;;
68718;SDS011;55696;52.138;5.444;2022-08-19T01:03:21;9.93;;;6.53;;
68718;SDS011;55696;52.138;5.444;2022-08-19T01:05:48;11.38;;;5.82;;
68718;SDS011;55696;52.138;5.444;2022-08-19T01:08:17;8.23;;;6.35;;
68718;SDS011;55696;52.138;5.444;2022-08-19T01:10:50;9.50;;;6.40;;
68718;SDS011;55696;52.138;5.444;2022-08-19T01:13:21;8.10;;;5.55;;
68718;SDS011;55696;52.138;5.444;2022-08-19T01:16:15;8.70;;;5.32;;
68718;SDS011;55696;52.138;5.444;2022-08-19T01:18:44;9.60;;;5.82;;
68718;SDS011;55696;52.138;5.444;2022-08-19T01:21:16;8.65;;;6.03;;
68718;SDS011;55696;52.138;5.444;2022-08-19T01:23:47;7.00;;;4.95;;
68718;SDS011;55696;52.138;5.444;2022-08-19T01:26:16;8.95;;;5.80;;
68718;SDS011;55696;52.138;5.444;2022-08-19T01:28:46;9.48;;;6.13;;
68718;SDS011;55696;52.138;5.444;2022-08-19T01:31:18;10.48;;;5.70;;
68718;SDS011;55696;52.138;5.444;2022-08-19T01:33:53;11.70;;;6.10;;
68718;SDS011;55696;52.138;5.444;2022-08-19T01:36:27;7.50;;;5.00;;
68718;SDS011;55696;52.138;5.444;2022-08-19T01:38:54;8.13;;;5.55;;
68718;SDS011;55696;52.138;5.444;2022-08-19T01:41:21;6.78;;;4.90;;
68718;SDS011;55696;52.138;5.444;2022-08-19T01:43:50;7.43;;;4.80;;
68718;SDS011;55696;52.138;5.444;2022-08-19T01:46:38;7.23;;;5.40;;
68718;SDS011;55696;52.138;5.444;2022-08-19T01:49:05;6.97;;;4.80;;
68718;SDS011;55696;52.138;5.444;2022-08-19T01:51:34;6.88;;;5.05;;
68718;SDS011;55696;52.138;5.444;2022-08-19T01:54:05;6.93;;;4.88;;
68718;SDS011;55696;52.138;5.444;2022-08-19T01:56:32;7.20;;;4.90;;
68718;SDS011;55696;52.138;5.444;2022-08-19T01:59:03;8.98;;;6.13;;
68718;SDS011;55696;52.138;5.444;2022-08-19T02:01:34;9.90;;;5.72;;
68718;SDS011;55696;52.138;5.444;2022-08-19T02:04:01;8.13;;;5.70;;
68718;SDS011;55696;52.138;5.444;2022-08-19T02:06:28;6.82;;;4.88;;
68718;SDS011;55696;52.138;5.444;2022-08-19T02:08:55;9.38;;;4.93;;
68718;SDS011;55696;52.138;5.444;2022-08-19T02:11:30;6.10;;;3.90;;
68718;SDS011;55696;52.138;5.444;2022-08-19T02:14:00;5.80;;;4.10;;
68718;SDS011;55696;52.138;5.444;2022-08-19T02:16:28;6.80;;;3.80;;
68718;SDS011;55696;52.138;5.444;2022-08-19T02:18:56;7.85;;;3.65;;
68718;SDS011;55696;52.138;5.444;2022-08-19T02:21:26;8.27;;;3.67;;
68718;SDS011;55696;52.138;5.444;2022-08-19T02:23:53;6.55;;;3.60;;
68718;SDS011;55696;52.138;5.444;2022-08-19T02:26:21;7.07;;;3.63;;
68718;SDS011;55696;52.138;5.444;2022-08-19T02:28:48;5.20;;;3.28;;
68718;SDS011;55696;52.138;5.444;2022-08-19T02:31:17;4.65;;;3.47;;
68718;SDS011;55696;52.138;5.444;2022-08-19T02:33:46;5.13;;;2.97;;
68718;SDS011;55696;52.138;5.444;2022-08-19T02:36:14;5.00;;;2.93;;
68718;SDS011;55696;52.138;5.444;2022-08-19T02:38:47;4.75;;;3.05;;
68718;SDS011;55696;52.138;5.444;2022-08-19T02:41:24;5.57;;;3.28;;
68718;SDS011;55696;52.138;5.444;2022-08-19T02:43:54;6.88;;;3.22;;
68718;SDS011;55696;52.138;5.444;2022-08-19T02:46:42;7.05;;;2.83;;
68718;SDS011;55696;52.138;5.444;2022-08-19T02:49:12;5.90;;;2.53;;
68718;SDS011;55696;52.138;5.444;2022-08-19T02:51:42;4.78;;;3.75;;
68718;SDS011;55696;52.138;5.444;2022-08-19T02:54:11;4.25;;;2.83;;
68718;SDS011;55696;52.138;5.444;2022-08-19T02:56:39;5.13;;;3.20;;
68718;SDS011;55696;52.138;5.444;2022-08-19T02:59:07;7.10;;;4.18;;
68718;SDS011;55696;52.138;5.444;2022-08-19T03:01:37;6.50;;;4.23;;
68718;SDS011;55696;52.138;5.444;2022-08-19T03:04:06;7.20;;;5.05;;
68718;SDS011;55696;52.138;5.444;2022-08-19T03:06:39;9.25;;;4.80;;
68718;SDS011;55696;52.138;5.444;2022-08-19T03:09:07;7.82;;;5.38;;
68718;SDS011;55696;52.138;5.444;2022-08-19T03:11:35;9.65;;;5.65;;
68718;SDS011;55696;52.138;5.444;2022-08-19T03:14:03;10.20;;;5.70;;
68718;SDS011;55696;52.138;5.444;2022-08-19T03:16:33;11.40;;;5.90;;
68718;SDS011;55696;52.138;5.444;2022-08-19T03:19:05;6.80;;;3.88;;
68718;SDS011;55696;52.138;5.444;2022-08-19T03:21:33;9.95;;;5.20;;
68718;SDS011;55696;52.138;5.444;2022-08-19T03:24:07;8.57;;;5.47;;
68718;SDS011;55696;52.138;5.444;2022-08-19T03:26:38;10.63;;;6.75;;
68718;SDS011;55696;52.138;5.444;2022-08-19T03:29:09;7.60;;;5.00;;
68718;SDS011;55696;52.138;5.444;2022-08-19T03:31:39;8.48;;;5.20;;
68718;SDS011;55696;52.138;5.444;2022-08-19T03:34:19;7.77;;;4.73;;
68718;SDS011;55696;52.138;5.444;2022-08-19T03:36:54;7.70;;;5.03;;
68718;SDS011;55696;52.138;5.444;2022-08-19T03:39:24;10.88;;;5.95;;
68718;SDS011;55696;52.138;5.444;2022-08-19T03:41:52;9.20;;;4.88;;
68718;SDS011;55696;52.138;5.444;2022-08-19T03:44:42;9.85;;;5.93;;
68718;SDS011;55696;52.138;5.444;2022-08-19T03:47:10;8.80;;;6.07;;
68718;SDS011;55696;52.138;5.444;2022-08-19T03:49:41;14.05;;;6.85;;
68718;SDS011;55696;52.138;5.444;2022-08-19T03:52:09;12.95;;;7.07;;
68718;SDS011;55696;52.138;5.444;2022-08-19T03:54:36;8.93;;;5.65;;
68718;SDS011;55696;52.138;5.444;2022-08-19T03:57:04;10.38;;;5.60;;
68718;SDS011;55696;52.138;5.444;2022-08-19T03:59:32;10.00;;;5.03;;
68718;SDS011;55696;52.138;5.444;2022-08-19T04:02:02;8.02;;;4.78;;
68718;SDS011;55696;52.138;5.444;2022-08-19T04:04:34;9.63;;;4.30;;
68718;SDS011;55696;52.138;5.444;2022-08-19T04:07:03;6.60;;;4.00;;
68718;SDS011;55696;52.138;5.444;2022-08-19T04:09:30;8.80;;;5.22;;
68718;SDS011;55696;52.138;5.444;2022-08-19T04:11:57;10.40;;;5.80;;
68718;SDS011;55696;52.138;5.444;2022-08-19T04:14:25;7.63;;;4.75;;
68718;SDS011;55696;52.138;5.444;2022-08-19T04:16:56;8.05;;;5.10;;
68718;SDS011;55696;52.138;5.444;2022-08-19T04:19:23;9.00;;;5.35;;
68718;SDS011;55696;52.138;5.444;2022-08-19T04:21:51;13.88;;;6.93;;
68718;SDS011;55696;52.138;5.444;2022-08-19T04:24:20;9.37;;;5.43;;
68718;SDS011;55696;52.138;5.444;2022-08-19T04:26:48;17.60;;;6.72;;
68718;SDS011;55696;52.138;5.444;2022-08-19T04:29:16;16.77;;;6.85;;
68718;SDS011;55696;52.138;5.444;2022-08-19T04:31:45;8.52;;;5.30;;
68718;SDS011;55696;52.138;5.444;2022-08-19T04:34:13;10.93;;;7.18;;
68718;SDS011;55696;52.138;5.444;2022-08-19T04:36:42;11.57;;;6.50;;
68718;SDS011;55696;52.138;5.444;2022-08-19T04:39:12;30.92;;;7.90;;
68718;SDS011;55696;52.138;5.444;2022-08-19T04:41:41;12.07;;;7.43;;
68718;SDS011;55696;52.138;5.444;2022-08-19T04:44:27;10.70;;;6.13;;
68718;SDS011;55696;52.138;5.444;2022-08-19T04:46:58;9.60;;;6.22;;
68718;SDS011;55696;52.138;5.444;2022-08-19T04:49:27;11.93;;;7.13;;
68718;SDS011;55696;52.138;5.444;2022-08-19T04:51:54;10.40;;;6.82;;
68718;SDS011;55696;52.138;5.444;2022-08-19T04:54:22;13.23;;;8.68;;
68718;SDS011;55696;52.138;5.444;2022-08-19T04:57:05;9.88;;;6.45;;
68718;SDS011;55696;52.138;5.444;2022-08-19T04:59:35;13.15;;;7.55;;
68718;SDS011;55696;52.138;5.444;2022-08-19T05:02:03;14.60;;;7.90;;
68718;SDS011;55696;52.138;5.444;2022-08-19T05:04:30;10.73;;;7.35;;
68718;SDS011;55696;52.138;5.444;2022-08-19T05:06:58;12.00;;;7.20;;
68718;SDS011;55696;52.138;5.444;2022-08-19T05:09:27;12.27;;;6.53;;
68718;SDS011;55696;52.138;5.444;2022-08-19T05:12:15;11.52;;;6.68;;
68718;SDS011;55696;52.138;5.444;2022-08-19T05:14:42;12.87;;;7.73;;
68718;SDS011;55696;52.138;5.444;2022-08-19T05:17:11;13.48;;;7.65;;
68718;SDS011;55696;52.138;5.444;2022-08-19T05:19:53;11.70;;;7.25;;
68718;SDS011;55696;52.138;5.444;2022-08-19T05:22:40;12.57;;;7.80;;
68718;SDS011;55696;52.138;5.444;2022-08-19T05:25:12;11.35;;;7.50;;
68718;SDS011;55696;52.138;5.444;2022-08-19T05:27:41;10.43;;;7.20;;
68718;SDS011;55696;52.138;5.444;2022-08-19T05:30:08;12.63;;;7.82;;
68718;SDS011;55696;52.138;5.444;2022-08-19T05:32:36;11.82;;;7.95;;
68718;SDS011;55696;52.138;5.444;2022-08-19T05:35:04;10.60;;;5.82;;
68718;SDS011;55696;52.138;5.444;2022-08-19T05:37:31;13.23;;;8.43;;
68718;SDS011;55696;52.138;5.444;2022-08-19T05:39:58;12.40;;;8.03;;
68718;SDS011;55696;52.138;5.444;2022-08-19T05:42:25;13.85;;;8.35;;
68718;SDS011;55696;52.138;5.444;2022-08-19T05:44:52;13.00;;;8.60;;
68718;SDS011;55696;52.138;5.444;2022-08-19T05:47:19;12.93;;;7.80;;
68718;SDS011;55696;52.138;5.444;2022-08-19T05:49:46;11.50;;;7.75;;
68718;SDS011;55696;52.138;5.444;2022-08-19T05:52:14;12.03;;;7.67;;
68718;SDS011;55696;52.138;5.444;2022-08-19T05:54:51;13.98;;;8.13;;
68718;SDS011;55696;52.138;5.444;2022-08-19T05:57:21;12.05;;;7.30;;
68718;SDS011;55696;52.138;5.444;2022-08-19T05:59:48;10.35;;;6.60;;
68718;SDS011;55696;52.138;5.444;2022-08-19T06:02:23;12.68;;;7.20;;
68718;SDS011;55696;52.138;5.444;2022-08-19T06:04:51;14.07;;;8.50;;
68718;SDS011;55696;52.138;5.444;2022-08-19T06:07:17;14.15;;;8.02;;
68718;SDS011;55696;52.138;5.444;2022-08-19T06:09:45;13.90;;;8.45;;
68718;SDS011;55696;52.138;5.444;2022-08-19T06:12:27;16.25;;;10.02;;
68718;SDS011;55696;52.138;5.444;2022-08-19T06:15:02;19.70;;;11.48;;
68718;SDS011;55696;52.138;5.444;2022-08-19T06:17:31;24.53;;;12.87;;
68718;SDS011;55696;52.138;5.444;2022-08-19T06:20:01;23.98;;;12.73;;
68718;SDS011;55696;52.138;5.444;2022-08-19T06:22:37;26.55;;;14.85;;
68718;SDS011;55696;52.138;5.444;2022-08-19T06:25:04;29.52;;;15.85;;
68718;SDS011;55696;52.138;5.444;2022-08-19T06:27:31;27.08;;;15.05;;
68718;SDS011;55696;52.138;5.444;2022-08-19T06:29:59;28.60;;;15.40;;
68718;SDS011;55696;52.138;5.444;2022-08-19T06:32:26;25.88;;;13.38;;
68718;SDS011;55696;52.138;5.444;2022-08-19T06:34:53;27.63;;;14.90;;
68718;SDS011;55696;52.138;5.444;2022-08-19T06:37:19;29.40;;;16.05;;
68718;SDS011;55696;52.138;5.444;2022-08-19T06:39:47;31.20;;;15.07;;
68718;SDS011;55696;52.138;5.444;2022-08-19T06:42:14;26.13;;;13.57;;
68718;SDS011;55696;52.138;5.444;2022-08-19T06:44:47;34.05;;;16.65;;
68718;SDS011;55696;52.138;5.444;2022-08-19T06:47:19;38.75;;;19.77;;
68718;SDS011;55696;52.138;5.444;2022-08-19T06:49:55;34.78;;;19.25;;
68718;SDS011;55696;52.138;5.444;2022-08-19T06:52:32;28.35;;;15.93;;
68718;SDS011;55696;52.138;5.444;2022-08-19T06:55:02;45.13;;;21.03;;
68718;SDS011;55696;52.138;5.444;2022-08-19T06:57:32;46.25;;;23.58;;
68718;SDS011;55696;52.138;5.444;2022-08-19T06:59:59;42.33;;;20.52;;
68718;SDS011;55696;52.138;5.444;2022-08-19T07:02:27;51.28;;;24.90;;
68718;SDS011;55696;52.138;5.444;2022-08-19T07:04:53;52.25;;;24.17;;
68718;SDS011;55696;52.138;5.444;2022-08-19T07:07:24;59.22;;;27.13;;
68718;SDS011;55696;52.138;5.444;2022-08-19T07:09:51;55.63;;;25.02;;
68718;SDS011;55696;52.138;5.444;2022-08-19T07:12:30;59.05;;;25.27;;
68718;SDS011;55696;52.138;5.444;2022-08-19T07:15:04;59.40;;;23.55;;
68718;SDS011;55696;52.138;5.444;2022-08-19T07:17:32;58.47;;;25.75;;
68718;SDS011;55696;52.138;5.444;2022-08-19T07:20:00;49.78;;;22.20;;
68718;SDS011;55696;52.138;5.444;2022-08-19T07:22:30;65.18;;;27.73;;
68718;SDS011;55696;52.138;5.444;2022-08-19T07:24:58;58.20;;;25.20;;
68718;SDS011;55696;52.138;5.444;2022-08-19T07:27:26;59.58;;;27.10;;
68718;SDS011;55696;52.138;5.444;2022-08-19T07:29:52;59.70;;;27.30;;
68718;SDS011;55696;52.138;5.444;2022-08-19T07:32:22;55.78;;;26.58;;
68718;SDS011;55696;52.138;5.444;2022-08-19T07:34:52;60.55;;;27.63;;
68718;SDS011;55696;52.138;5.444;2022-08-19T07:37:21;61.05;;;29.52;;
68718;SDS011;55696;52.138;5.444;2022-08-19T07:39:48;56.65;;;29.95;;
68718;SDS011;55696;52.138;5.444;2022-08-19T07:42:15;62.10;;;30.50;;
68718;SDS011;55696;52.138;5.444;2022-08-19T07:44:43;54.72;;;27.85;;
68718;SDS011;55696;52.138;5.444;2022-08-19T07:47:16;64.47;;;30.52;;
68718;SDS011;55696;52.138;5.444;2022-08-19T07:50:05;61.65;;;30.55;;
68718;SDS011;55696;52.138;5.444;2022-08-19T07:52:34;56.10;;;29.20;;
68718;SDS011;55696;52.138;5.444;2022-08-19T07:55:03;55.58;;;29.63;;
68718;SDS011;55696;52.138;5.444;2022-08-19T07:57:51;61.72;;;30.17;;
68718;SDS011;55696;52.138;5.444;2022-08-19T08:00:19;52.28;;;28.48;;
68718;SDS011;55696;52.138;5.444;2022-08-19T08:02:49;58.20;;;29.15;;
68718;SDS011;55696;52.138;5.444;2022-08-19T08:05:16;54.42;;;29.35;;
68718;SDS011;55696;52.138;5.444;2022-08-19T08:08:22;51.10;;;27.52;;
68718;SDS011;55696;52.138;5.444;2022-08-19T08:10:58;47.08;;;25.98;;
68718;SDS011;55696;52.138;5.444;2022-08-19T08:13:25;44.40;;;24.85;;
68718;SDS011;55696;52.138;5.444;2022-08-19T08:15:53;45.28;;;23.60;;
68718;SDS011;55696;52.138;5.444;2022-08-19T08:18:21;36.03;;;21.02;;
68718;SDS011;55696;52.138;5.444;2022-08-19T08:20:55;42.28;;;23.40;;
68718;SDS011;55696;52.138;5.444;2022-08-19T08:23:24;40.88;;;22.40;;
68718;SDS011;55696;52.138;5.444;2022-08-19T08:25:54;40.22;;;22.52;;
68718;SDS011;55696;52.138;5.444;2022-08-19T08:28:23;42.97;;;22.50;;
68718;SDS011;55696;52.138;5.444;2022-08-19T08:30:51;38.03;;;21.42;;
68718;SDS011;55696;52.138;5.444;2022-08-19T08:33:19;39.78;;;22.33;;
68718;SDS011;55696;52.138;5.444;2022-08-19T08:36:06;41.78;;;23.48;;
68718;SDS011;55696;52.138;5.444;2022-08-19T08:38:37;40.92;;;21.95;;
68718;SDS011;55696;52.138;5.444;2022-08-19T08:43:49;37.40;;;20.00;;
68718;SDS011;55696;52.138;5.444;2022-08-19T08:46:21;35.35;;;20.10;;
68718;SDS011;55696;52.138;5.444;2022-08-19T08:51:38;38.50;;;19.45;;
68718;SDS011;55696;52.138;5.444;2022-08-19T08:54:13;35.88;;;20.05;;
68718;SDS011;55696;52.138;5.444;2022-08-19T08:56:44;33.55;;;19.77;;
68718;SDS011;55696;52.138;5.444;2022-08-19T09:01:54;35.90;;;18.58;;
68718;SDS011;55696;52.138;5.444;2022-08-19T09:04:20;36.33;;;18.90;;
68718;SDS011;55696;52.138;5.444;2022-08-19T09:06:55;29.77;;;17.30;;
68718;SDS011;55696;52.138;5.444;2022-08-19T09:15:36;30.02;;;16.70;;
68718;SDS011;55696;52.138;5.444;2022-08-19T09:18:08;26.70;;;14.15;;
68718;SDS011;55696;52.138;5.444;2022-08-19T09:20:44;24.60;;;14.65;;
68718;SDS011;55696;52.138;5.444;2022-08-19T09:23:13;28.33;;;15.50;;
68718;SDS011;55696;52.138;5.444;2022-08-19T09:25:40;28.92;;;16.50;;
68718;SDS011;55696;52.138;5.444;2022-08-19T09:28:07;23.38;;;13.68;;
68718;SDS011;55696;52.138;5.444;2022-08-19T09:30:52;28.02;;;15.05;;
68718;SDS011;55696;52.138;5.444;2022-08-19T09:33:19;29.65;;;15.00;;
68718;SDS011;55696;52.138;5.444;2022-08-19T09:35:46;22.58;;;14.05;;
68718;SDS011;55696;52.138;5.444;2022-08-19T09:38:19;25.73;;;15.35;;
68718;SDS011;55696;52.138;5.444;2022-08-19T09:40:46;22.45;;;12.27;;
68718;SDS011;55696;52.138;5.444;2022-08-19T09:43:13;24.02;;;14.77;;
68718;SDS011;55696;52.138;5.444;2022-08-19T09:45:40;23.52;;;15.07;;
68718;SDS011;55696;52.138;5.444;2022-08-19T09:48:06;27.55;;;14.48;;
68718;SDS011;55696;52.138;5.444;2022-08-19T09:50:37;26.10;;;14.15;;
68718;SDS011;55696;52.138;5.444;2022-08-19T09:53:17;24.92;;;13.68;;
68718;SDS011;55696;52.138;5.444;2022-08-19T09:55:45;22.95;;;13.35;;
68718;SDS011;55696;52.138;5.444;2022-08-19T09:58:11;20.52;;;11.98;;
68718;SDS011;55696;52.138;5.444;2022-08-19T10:00:38;21.98;;;12.88;;
68718;SDS011;55696;52.138;5.444;2022-08-19T10:03:05;20.40;;;12.02;;
68718;SDS011;55696;52.138;5.444;2022-08-19T10:05:33;20.88;;;11.90;;
68718;SDS011;55696;52.138;5.444;2022-08-19T10:08:21;19.38;;;11.60;;
68718;SDS011;55696;52.138;5.444;2022-08-19T10:10:52;18.77;;;11.85;;
68718;SDS011;55696;52.138;5.444;2022-08-19T10:13:21;22.88;;;11.02;;
68718;SDS011;55696;52.138;5.444;2022-08-19T10:15:52;20.30;;;10.98;;
68718;SDS011;55696;52.138;5.444;2022-08-19T10:18:22;20.02;;;11.30;;
68718;SDS011;55696;52.138;5.444;2022-08-19T10:20:51;20.52;;;11.40;;
68718;SDS011;55696;52.138;5.444;2022-08-19T10:23:20;21.42;;;12.18;;
68718;SDS011;55696;52.138;5.444;2022-08-19T10:25:47;21.73;;;12.50;;
68718;SDS011;55696;52.138;5.444;2022-08-19T10:28:15;19.08;;;11.55;;
68718;SDS011;55696;52.138;5.444;2022-08-19T10:30:45;20.08;;;12.85;;
68718;SDS011;55696;52.138;5.444;2022-08-19T10:33:11;22.70;;;14.38;;
68718;SDS011;55696;52.138;5.444;2022-08-19T10:35:38;21.17;;;13.60;;
68718;SDS011;55696;52.138;5.444;2022-08-19T10:38:22;21.17;;;12.70;;
68718;SDS011;55696;52.138;5.444;2022-08-19T10:40:58;21.85;;;13.95;;
68718;SDS011;55696;52.138;5.444;2022-08-19T10:43:33;16.88;;;11.70;;
68718;SDS011;55696;52.138;5.444;2022-08-19T10:46:05;22.77;;;13.45;;
68718;SDS011;55696;52.138;5.444;2022-08-19T10:48:40;23.85;;;14.85;;
68718;SDS011;55696;52.138;5.444;2022-08-19T10:51:08;23.17;;;13.57;;
68718;SDS011;55696;52.138;5.444;2022-08-19T10:53:54;26.02;;;14.70;;
68718;SDS011;55696;52.138;5.444;2022-08-19T10:56:22;23.45;;;14.75;;
68718;SDS011;55696;52.138;5.444;2022-08-19T10:59:07;24.92;;;15.15;;
68718;SDS011;55696;52.138;5.444;2022-08-19T11:01:35;19.85;;;14.00;;
68718;SDS011;55696;52.138;5.444;2022-08-19T11:04:02;25.65;;;15.93;;
68718;SDS011;55696;52.138;5.444;2022-08-19T11:06:33;25.60;;;16.35;;
68718;SDS011;55696;52.138;5.444;2022-08-19T11:09:00;23.92;;;15.93;;
68718;SDS011;55696;52.138;5.444;2022-08-19T11:11:27;27.73;;;16.70;;
68718;SDS011;55696;52.138;5.444;2022-08-19T11:13:54;23.35;;;16.25;;
68718;SDS011;55696;52.138;5.444;2022-08-19T11:16:22;23.85;;;16.52;;
68718;SDS011;55696;52.138;5.444;2022-08-19T11:18:53;26.27;;;17.40;;
68718;SDS011;55696;52.138;5.444;2022-08-19T11:21:28;21.17;;;14.30;;
68718;SDS011;55696;52.138;5.444;2022-08-19T11:23:58;28.23;;;18.25;;
68718;SDS011;55696;52.138;5.444;2022-08-19T11:26:32;28.20;;;17.80;;
68718;SDS011;55696;52.138;5.444;2022-08-19T11:29:00;27.05;;;17.90;;
68718;SDS011;55696;52.138;5.444;2022-08-19T11:31:29;28.50;;;15.98;;
68718;SDS011;55696;52.138;5.444;2022-08-19T11:33:57;25.85;;;17.27;;
68718;SDS011;55696;52.138;5.444;2022-08-19T11:36:26;25.25;;;17.23;;
68718;SDS011;55696;52.138;5.444;2022-08-19T11:38:54;26.60;;;16.90;;
68718;SDS011;55696;52.138;5.444;2022-08-19T11:41:21;28.80;;;17.35;;
68718;SDS011;55696;52.138;5.444;2022-08-19T11:43:52;28.73;;;17.33;;
68718;SDS011;55696;52.138;5.444;2022-08-19T11:46:21;31.25;;;19.35;;
68718;SDS011;55696;52.138;5.444;2022-08-19T11:48:49;29.60;;;18.65;;
68718;SDS011;55696;52.138;5.444;2022-08-19T11:51:18;26.40;;;18.90;;
68718;SDS011;55696;52.138;5.444;2022-08-19T11:53:48;26.35;;;18.08;;
68718;SDS011;55696;52.138;5.444;2022-08-19T11:56:16;32.08;;;20.50;;
68718;SDS011;55696;52.138;5.444;2022-08-19T11:58:44;30.90;;;16.85;;
68718;SDS011;55696;52.138;5.444;2022-08-19T12:01:12;26.98;;;18.25;;
68718;SDS011;55696;52.138;5.444;2022-08-19T12:03:42;32.22;;;18.48;;
68718;SDS011;55696;52.138;5.444;2022-08-19T12:06:12;26.70;;;17.75;;
68718;SDS011;55696;52.138;5.444;2022-08-19T12:08:41;26.52;;;17.60;;
68718;SDS011;55696;52.138;5.444;2022-08-19T12:11:09;30.35;;;19.50;;
68718;SDS011;55696;52.138;5.444;2022-08-19T12:13:37;26.27;;;16.10;;
68718;SDS011;55696;52.138;5.444;2022-08-19T12:16:08;27.95;;;17.55;;
68718;SDS011;55696;52.138;5.444;2022-08-19T12:18:38;29.75;;;16.95;;
68718;SDS011;55696;52.138;5.444;2022-08-19T12:21:09;30.25;;;18.45;;
68718;SDS011;55696;52.138;5.444;2022-08-19T12:23:40;37.25;;;20.45;;
68718;SDS011;55696;52.138;5.444;2022-08-19T12:26:08;33.47;;;18.80;;
68718;SDS011;55696;52.138;5.444;2022-08-19T12:28:36;31.88;;;19.02;;
68718;SDS011;55696;52.138;5.444;2022-08-19T12:31:04;25.25;;;16.08;;
68718;SDS011;55696;52.138;5.444;2022-08-19T12:33:32;25.45;;;16.30;;
68718;SDS011;55696;52.138;5.444;2022-08-19T12:36:05;30.15;;;16.92;;
68718;SDS011;55696;52.138;5.444;2022-08-19T12:38:33;30.92;;;19.65;;
68718;SDS011;55696;52.138;5.444;2022-08-19T12:41:00;27.48;;;17.08;;
68718;SDS011;55696;52.138;5.444;2022-08-19T12:43:31;28.33;;;19.02;;
68718;SDS011;55696;52.138;5.444;2022-08-19T12:45:59;30.13;;;19.05;;
68718;SDS011;55696;52.138;5.444;2022-08-19T12:48:25;25.13;;;15.32;;
68718;SDS011;55696;52.138;5.444;2022-08-19T12:50:59;23.65;;;15.68;;
68718;SDS011;55696;52.138;5.444;2022-08-19T12:53:27;24.00;;;15.95;;
68718;SDS011;55696;52.138;5.444;2022-08-19T12:55:55;24.20;;;14.68;;
68718;SDS011;55696;52.138;5.444;2022-08-19T12:58:23;21.98;;;13.82;;
68718;SDS011;55696;52.138;5.444;2022-08-19T13:00:52;22.52;;;14.38;;
68718;SDS011;55696;52.138;5.444;2022-08-19T13:03:20;19.10;;;12.75;;
68718;SDS011;55696;52.138;5.444;2022-08-19T13:05:50;20.70;;;12.55;;
68718;SDS011;55696;52.138;5.444;2022-08-19T13:08:17;17.90;;;12.10;;
68718;SDS011;55696;52.138;5.444;2022-08-19T13:10:43;21.38;;;13.65;;
68718;SDS011;55696;52.138;5.444;2022-08-19T13:13:10;21.88;;;13.23;;
68718;SDS011;55696;52.138;5.444;2022-08-19T13:15:38;19.00;;;12.48;;
68718;SDS011;55696;52.138;5.444;2022-08-19T13:18:07;17.05;;;12.13;;
68718;SDS011;55696;52.138;5.444;2022-08-19T13:20:36;19.63;;;10.98;;
68718;SDS011;55696;52.138;5.444;2022-08-19T13:23:07;15.20;;;10.40;;
68718;SDS011;55696;52.138;5.444;2022-08-19T13:25:34;19.58;;;11.15;;
68718;SDS011;55696;52.138;5.444;2022-08-19T13:28:02;15.77;;;12.02;;
68718;SDS011;55696;52.138;5.444;2022-08-19T13:30:30;17.98;;;12.10;;
68718;SDS011;55696;52.138;5.444;2022-08-19T13:33:15;20.40;;;13.30;;
68718;SDS011;55696;52.138;5.444;2022-08-19T13:38:14;21.23;;;14.15;;
68718;SDS011;55696;52.138;5.444;2022-08-19T13:40:43;18.75;;;13.38;;
68718;SDS011;55696;52.138;5.444;2022-08-19T13:43:10;22.70;;;12.98;;
68718;SDS011;55696;52.138;5.444;2022-08-19T13:45:49;27.13;;;16.13;;
68718;SDS011;55696;52.138;5.444;2022-08-19T13:48:18;24.45;;;15.88;;
68718;SDS011;55696;52.138;5.444;2022-08-19T13:50:45;21.30;;;14.10;;
68718;SDS011;55696;52.138;5.444;2022-08-19T13:53:14;21.80;;;13.75;;
68718;SDS011;55696;52.138;5.444;2022-08-19T13:55:42;21.08;;;13.65;;
68718;SDS011;55696;52.138;5.444;2022-08-19T13:58:10;17.35;;;13.55;;
68718;SDS011;55696;52.138;5.444;2022-08-19T14:00:42;21.48;;;13.95;;
68718;SDS011;55696;52.138;5.444;2022-08-19T14:03:10;22.98;;;15.45;;
68718;SDS011;55696;52.138;5.444;2022-08-19T14:05:37;21.52;;;14.30;;
68718;SDS011;55696;52.138;5.444;2022-08-19T14:08:05;21.75;;;15.57;;
68718;SDS011;55696;52.138;5.444;2022-08-19T14:10:32;20.25;;;14.50;;
68718;SDS011;55696;52.138;5.444;2022-08-19T14:13:01;21.15;;;12.88;;
68718;SDS011;55696;52.138;5.444;2022-08-19T14:15:29;17.30;;;12.13;;
68718;SDS011;55696;52.138;5.444;2022-08-19T14:17:56;15.05;;;9.15;;
68718;SDS011;55696;52.138;5.444;2022-08-19T14:20:22;11.15;;;7.10;;
68718;SDS011;55696;52.138;5.444;2022-08-19T14:22:51;10.73;;;6.97;;
68718;SDS011;55696;52.138;5.444;2022-08-19T14:25:21;10.32;;;6.53;;
68718;SDS011;55696;52.138;5.444;2022-08-19T14:27:53;12.43;;;7.50;;
68718;SDS011;55696;52.138;5.444;2022-08-19T14:30:25;15.15;;;9.80;;
68718;SDS011;55696;52.138;5.444;2022-08-19T14:32:54;16.42;;;9.95;;
68718;SDS011;55696;52.138;5.444;2022-08-19T14:35:24;20.27;;;9.88;;
68718;SDS011;55696;52.138;5.444;2022-08-19T14:37:52;16.00;;;9.80;;
68718;SDS011;55696;52.138;5.444;2022-08-19T14:40:26;12.95;;;8.70;;
68718;SDS011;55696;52.138;5.444;2022-08-19T14:42:56;15.30;;;10.68;;
68718;SDS011;55696;52.138;5.444;2022-08-19T14:45:28;13.32;;;9.50;;
68718;SDS011;55696;52.138;5.444;2022-08-19T14:48:03;15.73;;;10.32;;
68718;SDS011;55696;52.138;5.444;2022-08-19T14:50:31;16.63;;;11.30;;
68718;SDS011;55696;52.138;5.444;2022-08-19T14:53:02;17.25;;;10.38;;
68718;SDS011;55696;52.138;5.444;2022-08-19T14:55:40;15.63;;;9.85;;
68718;SDS011;55696;52.138;5.444;2022-08-19T14:58:11;17.20;;;9.30;;
68718;SDS011;55696;52.138;5.444;2022-08-19T15:00:56;11.85;;;8.45;;
68718;SDS011;55696;52.138;5.444;2022-08-19T15:03:24;11.30;;;8.73;;
68718;SDS011;55696;52.138;5.444;2022-08-19T15:05:52;13.73;;;9.20;;